sensor_id;sensor_type;location;lat;lon;timestamp;pressure;altitude;pressure_sealevel;temperature;humidity
11856;BME280;5987;53.140;8.904;2023-07-24T00:00:31;100380.09;;;16.80;100.00
11856;BME280;5987;53.140;8.904;2023-07-24T00:03:36;100385.00;;;16.74;100.00
11856;BME280;5987;53.140;8.904;2023-07-24T00:06:39;100379.16;;;16.69;100.00
11856;BME280;5987;53.140;8.904;2023-07-24T00:09:43;100381.28;;;16.63;100.00
11856;BME280;5987;53.140;8.904;2023-07-24T00:12:47;100388.81;;;16.70;100.00
11856;BME280;5987;53.140;8.904;2023-07-24T00:15:52;100379.72;;;16.74;100.00
11856;BME280;5987;53.140;8.904;2023-07-24T00:18:55;100379.25;;;16.80;100.00
11856;BME280;5987;53.140;8.904;2023-07-24T00:21:59;100385.22;;;16.84;100.00
11856;BME280;5987;53.140;8.904;2023-07-24T00:25:03;100376.16;;;16.86;100.00
11856;BME280;5987;53.140;8.904;2023-07-24T00:28:08;100372.56;;;16.87;100.00
11856;BME280;5987;53.140;8.904;2023-07-24T00:31:12;100378.66;;;16.89;100.00
11856;BME280;5987;53.140;8.904;2023-07-24T00:34:16;100365.91;;;16.81;100.00
11856;BME280;5987;53.140;8.904;2023-07-24T00:37:20;100361.75;;;16.77;100.00
11856;BME280;5987;53.140;8.904;2023-07-24T00:40:23;100358.69;;;16.71;100.00
11856;BME280;5987;53.140;8.904;2023-07-24T00:43:27;100372.38;;;16.64;100.00
11856;BME280;5987;53.140;8.904;2023-07-24T00:46:33;100372.72;;;16.60;100.00
11856;BME280;5987;53.140;8.904;2023-07-24T00:49:38;100374.41;;;16.61;100.00
11856;BME280;5987;53.140;8.904;2023-07-24T00:52:43;100374.81;;;16.55;100.00
11856;BME280;5987;53.140;8.904;2023-07-24T00:55:47;100375.03;;;16.52;100.00
11856;BME280;5987;53.140;8.904;2023-07-24T00:58:52;100374.81;;;16.55;100.00
11856;BME280;5987;53.140;8.904;2023-07-24T01:01:59;100368.69;;;16.54;100.00
11856;BME280;5987;53.140;8.904;2023-07-24T01:05:04;100370.41;;;16.55;100.00
11856;BME280;5987;53.140;8.904;2023-07-24T01:08:08;100375.69;;;16.55;100.00
11856;BME280;5987;53.140;8.904;2023-07-24T01:11:19;100359.34;;;16.61;100.00
11856;BME280;5987;53.140;8.904;2023-07-24T01:14:31;100364.00;;;16.58;100.00
11856;BME280;5987;53.140;8.904;2023-07-24T01:17:45;100362.34;;;16.57;100.00
11856;BME280;5987;53.140;8.904;2023-07-24T01:20:53;100357.88;;;16.57;100.00
11856;BME280;5987;53.140;8.904;2023-07-24T01:24:12;100356.38;;;16.66;100.00
11856;BME280;5987;53.140;8.904;2023-07-24T01:27:24;100358.06;;;16.67;100.00
11856;BME280;5987;53.140;8.904;2023-07-24T01:30:27;100358.41;;;16.62;100.00
11856;BME280;5987;53.140;8.904;2023-07-24T01:33:31;100366.47;;;16.61;100.00
11856;BME280;5987;53.140;8.904;2023-07-24T01:36:37;100354.38;;;16.70;100.00
11856;BME280;5987;53.140;8.904;2023-07-24T01:39:43;100355.31;;;16.69;100.00
11856;BME280;5987;53.140;8.904;2023-07-24T01:42:49;100352.31;;;16.73;100.00
11856;BME280;5987;53.140;8.904;2023-07-24T01:45:53;100347.91;;;16.74;100.00
11856;BME280;5987;53.140;8.904;2023-07-24T01:48:57;100346.91;;;16.75;100.00
11856;BME280;5987;53.140;8.904;2023-07-24T01:52:00;100344.78;;;16.80;100.00
11856;BME280;5987;53.140;8.904;2023-07-24T01:55:05;100347.91;;;16.74;100.00
11856;BME280;5987;53.140;8.904;2023-07-24T01:58:10;100332.41;;;16.68;100.00
11856;BME280;5987;53.140;8.904;2023-07-24T02:01:14;100337.31;;;16.61;100.00
11856;BME280;5987;53.140;8.904;2023-07-24T02:04:17;100345.78;;;16.53;100.00
11856;BME280;5987;53.140;8.904;2023-07-24T02:07:24;100348.22;;;16.56;100.00
11856;BME280;5987;53.140;8.904;2023-07-24T02:10:27;100340.03;;;16.59;100.00
11856;BME280;5987;53.140;8.904;2023-07-24T02:13:32;100343.88;;;16.68;100.00
11856;BME280;5987;53.140;8.904;2023-07-24T02:16:36;100340.34;;;16.68;100.00
11856;BME280;5987;53.140;8.904;2023-07-24T02:19:40;100333.16;;;16.70;100.00
11856;BME280;5987;53.140;8.904;2023-07-24T02:22:43;100340.06;;;16.72;100.00
11856;BME280;5987;53.140;8.904;2023-07-24T02:25:51;100337.28;;;16.74;100.00
11856;BME280;5987;53.140;8.904;2023-07-24T02:28:56;100332.81;;;16.74;100.00
11856;BME280;5987;53.140;8.904;2023-07-24T02:32:00;100335.91;;;16.81;100.00
11856;BME280;5987;53.140;8.904;2023-07-24T02:35:06;100332.28;;;16.82;100.00
11856;BME280;5987;53.140;8.904;2023-07-24T02:38:09;100328.56;;;16.85;100.00
11856;BME280;5987;53.140;8.904;2023-07-24T02:41:13;100314.78;;;16.79;100.00
11856;BME280;5987;53.140;8.904;2023-07-24T02:44:18;100315.50;;;16.81;100.00
11856;BME280;5987;53.140;8.904;2023-07-24T02:47:22;100319.97;;;16.81;100.00
11856;BME280;5987;53.140;8.904;2023-07-24T02:50:25;100318.41;;;16.78;100.00
11856;BME280;5987;53.140;8.904;2023-07-24T02:53:29;100327.19;;;16.79;100.00
11856;BME280;5987;53.140;8.904;2023-07-24T02:56:32;100322.63;;;16.81;100.00
11856;BME280;5987;53.140;8.904;2023-07-24T02:59:37;100315.84;;;16.77;100.00
11856;BME280;5987;53.140;8.904;2023-07-24T03:02:41;100315.78;;;16.66;100.00
11856;BME280;5987;53.140;8.904;2023-07-24T03:05:44;100316.28;;;16.58;100.00
11856;BME280;5987;53.140;8.904;2023-07-24T03:08:48;100316.84;;;16.50;100.00
11856;BME280;5987;53.140;8.904;2023-07-24T03:11:52;100320.88;;;16.43;100.00
11856;BME280;5987;53.140;8.904;2023-07-24T03:14:57;100326.81;;;16.34;100.00
11856;BME280;5987;53.140;8.904;2023-07-24T03:18:00;100326.09;;;16.19;100.00
11856;BME280;5987;53.140;8.904;2023-07-24T03:21:04;100334.22;;;16.16;100.00
11856;BME280;5987;53.140;8.904;2023-07-24T03:24:07;100323.84;;;16.12;100.00
11856;BME280;5987;53.140;8.904;2023-07-24T03:27:11;100320.03;;;16.04;100.00
11856;BME280;5987;53.140;8.904;2023-07-24T03:30:17;100330.06;;;15.99;100.00
11856;BME280;5987;53.140;8.904;2023-07-24T03:33:21;100319.28;;;16.02;100.00
11856;BME280;5987;53.140;8.904;2023-07-24T03:36:24;100315.25;;;15.96;100.00
11856;BME280;5987;53.140;8.904;2023-07-24T03:39:28;100317.38;;;15.91;100.00
11856;BME280;5987;53.140;8.904;2023-07-24T03:42:32;100319.25;;;15.89;100.00
11856;BME280;5987;53.140;8.904;2023-07-24T03:45:37;100322.94;;;15.86;100.00
11856;BME280;5987;53.140;8.904;2023-07-24T03:48:40;100316.19;;;15.82;100.00
11856;BME280;5987;53.140;8.904;2023-07-24T03:51:44;100321.38;;;15.84;100.00
11856;BME280;5987;53.140;8.904;2023-07-24T03:54:48;100314.28;;;15.84;100.00
11856;BME280;5987;53.140;8.904;2023-07-24T03:57:51;100320.72;;;15.80;100.00
11856;BME280;5987;53.140;8.904;2023-07-24T04:00:56;100336.41;;;15.83;100.00
11856;BME280;5987;53.140;8.904;2023-07-24T04:04:00;100340.16;;;15.93;100.00
11856;BME280;5987;53.140;8.904;2023-07-24T04:07:04;100328.91;;;16.03;100.00
11856;BME280;5987;53.140;8.904;2023-07-24T04:10:08;100328.41;;;16.10;100.00
11856;BME280;5987;53.140;8.904;2023-07-24T04:13:12;100333.59;;;16.12;100.00
11856;BME280;5987;53.140;8.904;2023-07-24T04:16:17;100333.72;;;16.23;100.00
11856;BME280;5987;53.140;8.904;2023-07-24T04:19:21;100315.69;;;16.28;100.00
11856;BME280;5987;53.140;8.904;2023-07-24T04:22:25;100329.47;;;16.34;100.00
11856;BME280;5987;53.140;8.904;2023-07-24T04:25:29;100322.56;;;16.44;100.00
11856;BME280;5987;53.140;8.904;2023-07-24T04:28:32;100311.44;;;16.52;100.00
11856;BME280;5987;53.140;8.904;2023-07-24T04:31:37;100308.56;;;16.55;100.00
11856;BME280;5987;53.140;8.904;2023-07-24T04:34:41;100309.53;;;16.67;100.00
11856;BME280;5987;53.140;8.904;2023-07-24T04:37:45;100304.31;;;16.78;100.00
11856;BME280;5987;53.140;8.904;2023-07-24T04:40:49;100293.97;;;16.86;100.00
11856;BME280;5987;53.140;8.904;2023-07-24T04:43:52;100281.56;;;16.87;100.00
11856;BME280;5987;53.140;8.904;2023-07-24T04:46:58;100268.97;;;16.90;100.00
11856;BME280;5987;53.140;8.904;2023-07-24T04:50:01;100269.53;;;17.07;100.00
11856;BME280;5987;53.140;8.904;2023-07-24T04:53:05;100275.84;;;17.17;100.00
11856;BME280;5987;53.140;8.904;2023-07-24T04:56:09;100260.81;;;17.18;100.00
11856;BME280;5987;53.140;8.904;2023-07-24T04:59:13;100248.84;;;17.12;100.00
11856;BME280;5987;53.140;8.904;2023-07-24T05:02:18;100250.19;;;17.18;100.00
11856;BME280;5987;53.140;8.904;2023-07-24T05:05:22;100244.00;;;17.17;100.00
11856;BME280;5987;53.140;8.904;2023-07-24T05:08:25;100243.31;;;17.15;100.00
11856;BME280;5987;53.140;8.904;2023-07-24T05:11:29;100243.41;;;17.13;100.00
11856;BME280;5987;53.140;8.904;2023-07-24T05:14:32;100240.00;;;17.11;100.00
11856;BME280;5987;53.140;8.904;2023-07-24T05:17:37;100244.88;;;17.18;100.00
11856;BME280;5987;53.140;8.904;2023-07-24T05:20:44;100244.75;;;17.19;100.00
11856;BME280;5987;53.140;8.904;2023-07-24T05:23:48;100238.09;;;17.13;100.00
11856;BME280;5987;53.140;8.904;2023-07-24T05:26:52;100238.00;;;17.15;100.00
11856;BME280;5987;53.140;8.904;2023-07-24T05:29:56;100239.56;;;17.18;100.00
11856;BME280;5987;53.140;8.904;2023-07-24T05:33:01;100241.66;;;17.25;100.00
11856;BME280;5987;53.140;8.904;2023-07-24T05:36:05;100238.72;;;17.17;100.00
11856;BME280;5987;53.140;8.904;2023-07-24T05:39:08;100248.13;;;17.21;100.00
11856;BME280;5987;53.140;8.904;2023-07-24T05:42:12;100247.59;;;17.29;100.00
11856;BME280;5987;53.140;8.904;2023-07-24T05:45:16;100247.00;;;17.37;100.00
11856;BME280;5987;53.140;8.904;2023-07-24T05:48:21;100230.88;;;17.40;100.00
11856;BME280;5987;53.140;8.904;2023-07-24T05:51:25;100229.44;;;17.47;100.00
11856;BME280;5987;53.140;8.904;2023-07-24T05:54:29;100217.97;;;17.46;100.00
11856;BME280;5987;53.140;8.904;2023-07-24T05:57:32;100213.03;;;17.53;100.00
11856;BME280;5987;53.140;8.904;2023-07-24T06:00:36;100210.75;;;17.48;100.00
11856;BME280;5987;53.140;8.904;2023-07-24T06:03:41;100209.66;;;17.51;100.00
11856;BME280;5987;53.140;8.904;2023-07-24T06:06:44;100209.66;;;17.51;100.00
11856;BME280;5987;53.140;8.904;2023-07-24T06:09:48;100207.00;;;17.51;100.00
11856;BME280;5987;53.140;8.904;2023-07-24T06:12:52;100215.56;;;17.55;100.00
11856;BME280;5987;53.140;8.904;2023-07-24T06:15:55;100210.75;;;17.48;100.00
11856;BME280;5987;53.140;8.904;2023-07-24T06:19:00;100213.00;;;17.42;100.00
11856;BME280;5987;53.140;8.904;2023-07-24T06:22:04;100209.63;;;17.40;100.00
11856;BME280;5987;53.140;8.904;2023-07-24T06:25:08;100215.66;;;17.42;100.00
11856;BME280;5987;53.140;8.904;2023-07-24T06:28:11;100208.19;;;17.47;100.00
11856;BME280;5987;53.140;8.904;2023-07-24T06:31:16;100211.19;;;17.42;100.00
11856;BME280;5987;53.140;8.904;2023-07-24T06:34:21;100206.03;;;17.52;100.00
11856;BME280;5987;53.140;8.904;2023-07-24T06:37:24;100194.19;;;17.45;100.00
11856;BME280;5987;53.140;8.904;2023-07-24T06:40:28;100199.25;;;17.48;100.00
11856;BME280;5987;53.140;8.904;2023-07-24T06:43:31;100199.06;;;17.51;100.00
11856;BME280;5987;53.140;8.904;2023-07-24T06:46:35;100186.00;;;17.48;100.00
11856;BME280;5987;53.140;8.904;2023-07-24T06:49:40;100192.03;;;17.50;100.00
11856;BME280;5987;53.140;8.904;2023-07-24T06:52:43;100193.00;;;17.49;100.00
11856;BME280;5987;53.140;8.904;2023-07-24T06:55:47;100196.13;;;17.43;100.00
11856;BME280;5987;53.140;8.904;2023-07-24T06:58:51;100201.69;;;17.51;100.00
11856;BME280;5987;53.140;8.904;2023-07-24T07:01:54;100205.06;;;17.53;100.00
11856;BME280;5987;53.140;8.904;2023-07-24T07:04:59;100207.38;;;17.58;100.00
11856;BME280;5987;53.140;8.904;2023-07-24T07:08:03;100214.72;;;17.54;100.00
11856;BME280;5987;53.140;8.904;2023-07-24T07:11:07;100214.72;;;17.54;100.00
11856;BME280;5987;53.140;8.904;2023-07-24T07:14:10;100204.13;;;17.54;100.00
11856;BME280;5987;53.140;8.904;2023-07-24T07:17:15;100205.19;;;17.52;100.00
11856;BME280;5987;53.140;8.904;2023-07-24T07:20:20;100206.03;;;17.52;100.00
11856;BME280;5987;53.140;8.904;2023-07-24T07:23:23;100193.97;;;17.59;100.00
11856;BME280;5987;53.140;8.904;2023-07-24T07:26:27;100189.66;;;17.58;100.00
11856;BME280;5987;53.140;8.904;2023-07-24T07:29:32;100194.97;;;17.70;100.00
11856;BME280;5987;53.140;8.904;2023-07-24T07:32:36;100211.16;;;17.66;100.00
11856;BME280;5987;53.140;8.904;2023-07-24T07:35:41;100205.34;;;17.61;100.00
11856;BME280;5987;53.140;8.904;2023-07-24T07:38:45;100202.56;;;17.63;100.00
11856;BME280;5987;53.140;8.904;2023-07-24T07:41:48;100213.06;;;17.76;100.00
11856;BME280;5987;53.140;8.904;2023-07-24T07:45:03;100203.06;;;17.79;100.00
11856;BME280;5987;53.140;8.904;2023-07-24T07:48:07;100215.38;;;17.80;100.00
11856;BME280;5987;53.140;8.904;2023-07-24T07:51:12;100217.56;;;17.87;100.00
11856;BME280;5987;53.140;8.904;2023-07-24T07:54:16;100207.31;;;17.82;100.00
11856;BME280;5987;53.140;8.904;2023-07-24T07:57:20;100204.56;;;18.06;100.00
11856;BME280;5987;53.140;8.904;2023-07-24T08:00:23;100200.84;;;18.09;100.00
11856;BME280;5987;53.140;8.904;2023-07-24T08:03:27;100192.38;;;18.26;100.00
11856;BME280;5987;53.140;8.904;2023-07-24T08:06:32;100187.19;;;18.25;100.00
11856;BME280;5987;53.140;8.904;2023-07-24T08:09:36;100205.47;;;18.62;100.00
11856;BME280;5987;53.140;8.904;2023-07-24T08:12:40;100193.03;;;18.62;100.00
11856;BME280;5987;53.140;8.904;2023-07-24T08:15:44;100186.47;;;18.78;100.00
11856;BME280;5987;53.140;8.904;2023-07-24T08:18:48;100187.53;;;18.86;100.00
11856;BME280;5987;53.140;8.904;2023-07-24T08:21:53;100189.44;;;18.84;100.00
11856;BME280;5987;53.140;8.904;2023-07-24T08:24:56;100189.25;;;19.20;100.00
11856;BME280;5987;53.140;8.904;2023-07-24T08:28:00;100186.44;;;19.00;100.00
11856;BME280;5987;53.140;8.904;2023-07-24T08:31:08;100182.81;;;18.90;100.00
11856;BME280;5987;53.140;8.904;2023-07-24T08:34:12;100179.78;;;18.95;100.00
11856;BME280;5987;53.140;8.904;2023-07-24T08:37:17;100172.16;;;19.01;100.00
11856;BME280;5987;53.140;8.904;2023-07-24T08:40:20;100173.38;;;18.97;100.00
11856;BME280;5987;53.140;8.904;2023-07-24T08:43:24;100178.13;;;18.82;100.00
11856;BME280;5987;53.140;8.904;2023-07-24T08:46:28;100177.13;;;18.95;100.00
11856;BME280;5987;53.140;8.904;2023-07-24T08:49:33;100181.59;;;18.83;100.00
11856;BME280;5987;53.140;8.904;2023-07-24T08:52:39;100190.09;;;18.88;100.00
11856;BME280;5987;53.140;8.904;2023-07-24T08:55:45;100184.41;;;18.81;100.00
11856;BME280;5987;53.140;8.904;2023-07-24T08:58:51;100179.97;;;19.14;100.00
11856;BME280;5987;53.140;8.904;2023-07-24T09:01:55;100173.16;;;19.43;100.00
11856;BME280;5987;53.140;8.904;2023-07-24T09:04:59;100170.06;;;19.05;100.00
11856;BME280;5987;53.140;8.904;2023-07-24T09:08:04;100173.56;;;19.06;100.00
11856;BME280;5987;53.140;8.904;2023-07-24T09:11:12;100168.16;;;19.28;100.00
11856;BME280;5987;53.140;8.904;2023-07-24T09:14:24;100170.72;;;18.97;100.00
11856;BME280;5987;53.140;8.904;2023-07-24T09:17:32;100164.75;;;19.26;100.00
11856;BME280;5987;53.140;8.904;2023-07-24T09:20:41;100164.63;;;19.28;100.00
11856;BME280;5987;53.140;8.904;2023-07-24T09:23:46;100166.47;;;19.27;100.00
11856;BME280;5987;53.140;8.904;2023-07-24T09:26:52;100147.69;;;19.50;100.00
11856;BME280;5987;53.140;8.904;2023-07-24T09:29:58;100147.41;;;19.53;100.00
11856;BME280;5987;53.140;8.904;2023-07-24T09:33:03;100158.00;;;19.64;100.00
11856;BME280;5987;53.140;8.904;2023-07-24T09:36:08;100161.47;;;19.55;100.00
11856;BME280;5987;53.140;8.904;2023-07-24T09:39:14;100152.16;;;19.70;100.00
11856;BME280;5987;53.140;8.904;2023-07-24T09:42:18;100151.25;;;19.39;100.00
11856;BME280;5987;53.140;8.904;2023-07-24T09:45:21;100146.47;;;19.33;100.00
11856;BME280;5987;53.140;8.904;2023-07-24T09:48:27;100143.59;;;19.46;100.00
11856;BME280;5987;53.140;8.904;2023-07-24T09:51:34;100146.41;;;19.44;100.00
11856;BME280;5987;53.140;8.904;2023-07-24T09:54:51;100130.38;;;19.65;100.00
11856;BME280;5987;53.140;8.904;2023-07-24T09:58:00;100131.53;;;19.73;100.00
11856;BME280;5987;53.140;8.904;2023-07-24T10:01:06;100127.28;;;20.32;100.00
11856;BME280;5987;53.140;8.904;2023-07-24T10:04:11;100115.44;;;20.85;100.00
11856;BME280;5987;53.140;8.904;2023-07-24T10:07:17;100101.78;;;21.17;100.00
11856;BME280;5987;53.140;8.904;2023-07-24T10:10:25;100104.19;;;21.68;100.00
11856;BME280;5987;53.140;8.904;2023-07-24T10:13:32;100094.38;;;21.49;100.00
11856;BME280;5987;53.140;8.904;2023-07-24T10:16:38;100105.94;;;21.39;100.00
11856;BME280;5987;53.140;8.904;2023-07-24T10:19:43;100096.97;;;21.31;100.00
11856;BME280;5987;53.140;8.904;2023-07-24T10:22:47;100104.25;;;21.38;100.00
11856;BME280;5987;53.140;8.904;2023-07-24T10:25:52;100104.31;;;20.99;100.00
11856;BME280;5987;53.140;8.904;2023-07-24T10:28:56;100095.31;;;21.10;100.00
11856;BME280;5987;53.140;8.904;2023-07-24T10:32:01;100099.88;;;21.47;100.00
11856;BME280;5987;53.140;8.904;2023-07-24T10:35:08;100093.25;;;20.94;100.00
11856;BME280;5987;53.140;8.904;2023-07-24T10:38:14;100096.75;;;21.04;100.00
11856;BME280;5987;53.140;8.904;2023-07-24T10:41:19;100091.94;;;20.98;100.00
11856;BME280;5987;53.140;8.904;2023-07-24T10:44:31;100086.09;;;20.85;100.00
11856;BME280;5987;53.140;8.904;2023-07-24T10:47:34;100083.25;;;20.57;100.00
11856;BME280;5987;53.140;8.904;2023-07-24T10:50:40;100085.16;;;20.16;100.00
11856;BME280;5987;53.140;8.904;2023-07-24T10:53:47;100092.75;;;20.20;100.00
11856;BME280;5987;53.140;8.904;2023-07-24T10:56:59;100089.69;;;20.45;100.00
11856;BME280;5987;53.140;8.904;2023-07-24T11:00:05;100090.53;;;20.26;100.00
11856;BME280;5987;53.140;8.904;2023-07-24T11:03:10;100082.41;;;20.37;100.00
11856;BME280;5987;53.140;8.904;2023-07-24T11:06:16;100069.47;;;20.62;100.00
11856;BME280;5987;53.140;8.904;2023-07-24T11:09:20;100066.50;;;21.04;100.00
11856;BME280;5987;53.140;8.904;2023-07-24T11:12:25;100062.19;;;20.93;100.00
11856;BME280;5987;53.140;8.904;2023-07-24T11:15:33;100074.00;;;20.71;100.00
11856;BME280;5987;53.140;8.904;2023-07-24T11:18:46;100049.56;;;21.42;100.00
11856;BME280;5987;53.140;8.904;2023-07-24T11:21:56;100038.22;;;21.68;100.00
11856;BME280;5987;53.140;8.904;2023-07-24T11:25:00;100046.13;;;21.22;100.00
11856;BME280;5987;53.140;8.904;2023-07-24T11:28:07;100048.56;;;21.53;100.00
11856;BME280;5987;53.140;8.904;2023-07-24T11:31:11;100046.03;;;22.07;100.00
11856;BME280;5987;53.140;8.904;2023-07-24T11:34:17;100043.25;;;21.99;100.00
11856;BME280;5987;53.140;8.904;2023-07-24T11:37:21;100048.38;;;22.38;100.00
11856;BME280;5987;53.140;8.904;2023-07-24T11:40:32;100045.03;;;22.36;100.00
11856;BME280;5987;53.140;8.904;2023-07-24T11:43:47;100037.91;;;22.45;100.00
11856;BME280;5987;53.140;8.904;2023-07-24T11:46:51;100038.09;;;22.16;100.00
11856;BME280;5987;53.140;8.904;2023-07-24T11:50:01;100036.56;;;22.13;100.00
11856;BME280;5987;53.140;8.904;2023-07-24T11:53:05;100038.22;;;21.96;100.00
11856;BME280;5987;53.140;8.904;2023-07-24T11:56:14;100031.19;;;21.95;100.00
11856;BME280;5987;53.140;8.904;2023-07-24T11:59:20;100031.84;;;22.25;100.00
11856;BME280;5987;53.140;8.904;2023-07-24T12:02:25;100028.34;;;21.97;100.00
11856;BME280;5987;53.140;8.904;2023-07-24T12:05:30;100035.03;;;21.65;100.00
11856;BME280;5987;53.140;8.904;2023-07-24T12:08:40;100034.34;;;22.08;100.00
11856;BME280;5987;53.140;8.904;2023-07-24T12:11:44;100041.25;;;22.47;100.00
11856;BME280;5987;53.140;8.904;2023-07-24T12:14:50;100028.66;;;21.93;100.00
11856;BME280;5987;53.140;8.904;2023-07-24T12:17:54;100031.03;;;21.97;100.00
11856;BME280;5987;53.140;8.904;2023-07-24T12:20:59;100031.28;;;22.03;100.00
11856;BME280;5987;53.140;8.904;2023-07-24T12:24:03;100025.06;;;21.85;100.00
11856;BME280;5987;53.140;8.904;2023-07-24T12:27:06;100023.38;;;21.84;100.00
11856;BME280;5987;53.140;8.904;2023-07-24T12:30:12;100016.88;;;22.32;100.00
11856;BME280;5987;53.140;8.904;2023-07-24T12:33:16;100025.16;;;21.93;100.00
11856;BME280;5987;53.140;8.904;2023-07-24T12:36:20;100025.13;;;22.39;100.00
11856;BME280;5987;53.140;8.904;2023-07-24T12:39:23;100024.19;;;22.30;100.00
11856;BME280;5987;53.140;8.904;2023-07-24T12:42:27;100011.50;;;21.96;100.00
11856;BME280;5987;53.140;8.904;2023-07-24T12:45:32;100002.31;;;21.81;100.00
11856;BME280;5987;53.140;8.904;2023-07-24T12:48:35;100000.13;;;21.94;100.00
11856;BME280;5987;53.140;8.904;2023-07-24T12:51:39;100002.41;;;22.07;100.00
11856;BME280;5987;53.140;8.904;2023-07-24T12:54:43;99999.59;;;22.08;100.00
11856;BME280;5987;53.140;8.904;2023-07-24T12:58:02;99988.28;;;22.33;100.00
11856;BME280;5987;53.140;8.904;2023-07-24T13:01:08;99989.38;;;22.04;100.00
11856;BME280;5987;53.140;8.904;2023-07-24T13:04:12;99990.78;;;21.98;100.00
11856;BME280;5987;53.140;8.904;2023-07-24T13:07:16;99989.81;;;22.53;100.00
11856;BME280;5987;53.140;8.904;2023-07-24T13:10:20;99997.13;;;22.69;100.00
11856;BME280;5987;53.140;8.904;2023-07-24T13:13:23;99984.53;;;22.88;100.00
11856;BME280;5987;53.140;8.904;2023-07-24T13:16:29;99983.88;;;22.86;100.00
11856;BME280;5987;53.140;8.904;2023-07-24T13:19:33;99989.88;;;22.88;100.00
11856;BME280;5987;53.140;8.904;2023-07-24T13:22:37;99989.50;;;23.09;100.00
11856;BME280;5987;53.140;8.904;2023-07-24T13:25:40;99987.31;;;22.78;100.00
11856;BME280;5987;53.140;8.904;2023-07-24T13:28:44;99975.97;;;22.58;100.00
11856;BME280;5987;53.140;8.904;2023-07-24T13:31:50;99980.88;;;22.44;100.00
11856;BME280;5987;53.140;8.904;2023-07-24T13:34:54;99982.25;;;22.31;100.00
11856;BME280;5987;53.140;8.904;2023-07-24T13:37:58;99983.00;;;22.59;100.00
11856;BME280;5987;53.140;8.904;2023-07-24T13:41:01;99990.63;;;22.18;100.00
11856;BME280;5987;53.140;8.904;2023-07-24T13:44:05;99971.50;;;22.40;100.00
11856;BME280;5987;53.140;8.904;2023-07-24T13:47:10;99983.78;;;22.15;100.00
11856;BME280;5987;53.140;8.904;2023-07-24T13:50:14;99963.16;;;22.25;100.00
11856;BME280;5987;53.140;8.904;2023-07-24T13:53:17;99957.25;;;22.22;100.00
11856;BME280;5987;53.140;8.904;2023-07-24T13:56:21;99960.09;;;22.20;100.00
11856;BME280;5987;53.140;8.904;2023-07-24T13:59:25;99959.13;;;22.39;100.00
11856;BME280;5987;53.140;8.904;2023-07-24T14:02:30;99952.84;;;22.31;100.00
11856;BME280;5987;53.140;8.904;2023-07-24T14:05:34;99948.47;;;22.30;100.00
11856;BME280;5987;53.140;8.904;2023-07-24T14:08:39;99940.41;;;22.39;100.00
11856;BME280;5987;53.140;8.904;2023-07-24T14:11:42;99948.75;;;22.63;100.00
11856;BME280;5987;53.140;8.904;2023-07-24T14:14:46;99942.22;;;22.39;100.00
11856;BME280;5987;53.140;8.904;2023-07-24T14:17:51;99932.84;;;22.61;100.00
11856;BME280;5987;53.140;8.904;2023-07-24T14:20:55;99926.13;;;22.57;100.00
11856;BME280;5987;53.140;8.904;2023-07-24T14:23:59;99914.94;;;22.35;100.00
11856;BME280;5987;53.140;8.904;2023-07-24T14:27:02;99927.63;;;22.33;100.00
11856;BME280;5987;53.140;8.904;2023-07-24T14:30:08;99928.31;;;22.17;100.00
11856;BME280;5987;53.140;8.904;2023-07-24T14:33:14;99924.19;;;21.69;100.00
11856;BME280;5987;53.140;8.904;2023-07-24T14:36:21;99921.06;;;22.09;100.00
11856;BME280;5987;53.140;8.904;2023-07-24T14:39:24;99912.84;;;22.29;100.00
11856;BME280;5987;53.140;8.904;2023-07-24T14:42:28;99921.97;;;22.63;100.00
11856;BME280;5987;53.140;8.904;2023-07-24T14:45:32;99926.47;;;22.36;100.00
11856;BME280;5987;53.140;8.904;2023-07-24T14:48:37;99930.50;;;22.22;100.00
11856;BME280;5987;53.140;8.904;2023-07-24T14:51:40;99917.38;;;22.73;100.00
11856;BME280;5987;53.140;8.904;2023-07-24T14:54:44;99909.75;;;23.12;100.00
11856;BME280;5987;53.140;8.904;2023-07-24T14:57:48;99905.47;;;22.67;100.00
11856;BME280;5987;53.140;8.904;2023-07-24T15:01:02;99889.25;;;22.69;100.00
11856;BME280;5987;53.140;8.904;2023-07-24T15:04:07;99882.81;;;22.88;100.00
11856;BME280;5987;53.140;8.904;2023-07-24T15:07:10;99885.22;;;22.65;100.00
11856;BME280;5987;53.140;8.904;2023-07-24T15:10:14;99885.66;;;22.86;100.00
11856;BME280;5987;53.140;8.904;2023-07-24T15:13:18;99887.06;;;22.99;100.00
11856;BME280;5987;53.140;8.904;2023-07-24T15:16:21;99897.94;;;22.71;100.00
11856;BME280;5987;53.140;8.904;2023-07-24T15:19:26;99899.75;;;22.62;100.00
11856;BME280;5987;53.140;8.904;2023-07-24T15:22:30;99906.63;;;22.38;100.00
11856;BME280;5987;53.140;8.904;2023-07-24T15:25:34;99945.25;;;21.44;100.00
11856;BME280;5987;53.140;8.904;2023-07-24T15:28:37;99936.19;;;19.83;100.00
11856;BME280;5987;53.140;8.904;2023-07-24T15:31:41;99940.84;;;19.10;100.00
11856;BME280;5987;53.140;8.904;2023-07-24T15:34:46;99932.66;;;19.23;100.00
11856;BME280;5987;53.140;8.904;2023-07-24T15:37:50;99927.81;;;19.07;100.00
11856;BME280;5987;53.140;8.904;2023-07-24T15:40:53;99946.34;;;18.87;100.00
11856;BME280;5987;53.140;8.904;2023-07-24T15:43:57;99951.09;;;18.62;100.00
11856;BME280;5987;53.140;8.904;2023-07-24T15:47:01;99966.78;;;18.65;100.00
11856;BME280;5987;53.140;8.904;2023-07-24T15:50:07;99966.84;;;18.54;100.00
11856;BME280;5987;53.140;8.904;2023-07-24T15:53:11;99969.69;;;18.62;100.00
11856;BME280;5987;53.140;8.904;2023-07-24T15:56:14;99967.03;;;18.62;100.00
11856;BME280;5987;53.140;8.904;2023-07-24T15:59:19;99980.34;;;18.09;100.00
11856;BME280;5987;53.140;8.904;2023-07-24T16:02:24;99985.13;;;18.15;100.00
11856;BME280;5987;53.140;8.904;2023-07-24T16:05:31;99992.66;;;17.98;100.00
11856;BME280;5987;53.140;8.904;2023-07-24T16:08:35;100003.66;;;17.94;100.00